sensor_id;sensor_type;location;lat;lon;timestamp;temperature;humidity
1337;DHT22;662;48.814;9.318;2024-02-23T00:01:47;9.30;62.80
1337;DHT22;662;48.814;9.318;2024-02-23T00:04:14;9.20;62.80
1337;DHT22;662;48.814;9.318;2024-02-23T00:06:39;9.20;62.90
1337;DHT22;662;48.814;9.318;2024-02-23T00:09:06;9.20;62.80
1337;DHT22;662;48.814;9.318;2024-02-23T00:11:31;9.20;62.30
1337;DHT22;662;48.814;9.318;2024-02-23T00:14:05;9.10;62.40
1337;DHT22;662;48.814;9.318;2024-02-23T00:16:31;9.10;63.00
1337;DHT22;662;48.814;9.318;2024-02-23T00:18:56;9.10;62.20
1337;DHT22;662;48.814;9.318;2024-02-23T00:21:22;9.10;62.60
1337;DHT22;662;48.814;9.318;2024-02-23T00:23:48;9.10;62.70
1337;DHT22;662;48.814;9.318;2024-02-23T00:26:14;9.10;62.60
1337;DHT22;662;48.814;9.318;2024-02-23T00:28:39;9.10;62.50
1337;DHT22;662;48.814;9.318;2024-02-23T00:31:05;9.10;61.90
1337;DHT22;662;48.814;9.318;2024-02-23T00:33:30;9.10;62.10
1337;DHT22;662;48.814;9.318;2024-02-23T00:35:56;9.10;62.30
1337;DHT22;662;48.814;9.318;2024-02-23T00:38:22;9.10;62.50
1337;DHT22;662;48.814;9.318;2024-02-23T00:40:48;9.10;62.50
1337;DHT22;662;48.814;9.318;2024-02-23T00:43:13;9.10;62.30
1337;DHT22;662;48.814;9.318;2024-02-23T00:45:39;9.00;62.40
1337;DHT22;662;48.814;9.318;2024-02-23T00:48:05;9.00;62.20
1337;DHT22;662;48.814;9.318;2024-02-23T00:50:32;9.00;62.00
1337;DHT22;662;48.814;9.318;2024-02-23T00:52:57;9.00;61.90
1337;DHT22;662;48.814;9.318;2024-02-23T00:55:23;9.00;62.00
1337;DHT22;662;48.814;9.318;2024-02-23T00:57:50;9.00;61.90
1337;DHT22;662;48.814;9.318;2024-02-23T01:00:16;9.00;62.10
1337;DHT22;662;48.814;9.318;2024-02-23T01:02:42;9.10;62.10
1337;DHT22;662;48.814;9.318;2024-02-23T01:05:08;9.00;61.90
1337;DHT22;662;48.814;9.318;2024-02-23T01:07:36;9.00;61.70
1337;DHT22;662;48.814;9.318;2024-02-23T01:10:01;9.00;61.40
1337;DHT22;662;48.814;9.318;2024-02-23T01:12:29;9.00;61.30
1337;DHT22;662;48.814;9.318;2024-02-23T01:14:54;9.00;61.20
1337;DHT22;662;48.814;9.318;2024-02-23T01:17:20;9.00;61.40
1337;DHT22;662;48.814;9.318;2024-02-23T01:19:46;9.00;61.60
1337;DHT22;662;48.814;9.318;2024-02-23T01:22:12;9.00;61.60
1337;DHT22;662;48.814;9.318;2024-02-23T01:24:39;9.00;61.40
1337;DHT22;662;48.814;9.318;2024-02-23T01:27:04;9.00;61.60
1337;DHT22;662;48.814;9.318;2024-02-23T01:29:30;9.00;61.60
1337;DHT22;662;48.814;9.318;2024-02-23T01:31:56;9.00;61.80
1337;DHT22;662;48.814;9.318;2024-02-23T01:34:21;9.00;62.00
1337;DHT22;662;48.814;9.318;2024-02-23T01:36:47;9.00;62.00
1337;DHT22;662;48.814;9.318;2024-02-23T01:39:13;9.00;61.90
1337;DHT22;662;48.814;9.318;2024-02-23T01:41:39;9.00;62.00
1337;DHT22;662;48.814;9.318;2024-02-23T01:44:04;9.00;62.40
1337;DHT22;662;48.814;9.318;2024-02-23T01:46:30;9.00;62.10
1337;DHT22;662;48.814;9.318;2024-02-23T01:48:57;9.00;62.10
1337;DHT22;662;48.814;9.318;2024-02-23T01:51:24;8.90;61.90
1337;DHT22;662;48.814;9.318;2024-02-23T01:53:50;9.00;62.10
1337;DHT22;662;48.814;9.318;2024-02-23T01:56:16;9.00;62.00
1337;DHT22;662;48.814;9.318;2024-02-23T01:58:45;9.00;62.20
1337;DHT22;662;48.814;9.318;2024-02-23T02:01:11;9.00;62.20
1337;DHT22;662;48.814;9.318;2024-02-23T02:03:38;9.00;62.00
1337;DHT22;662;48.814;9.318;2024-02-23T02:06:06;9.00;62.00
1337;DHT22;662;48.814;9.318;2024-02-23T02:08:33;9.00;61.80
1337;DHT22;662;48.814;9.318;2024-02-23T02:11:00;9.00;61.60
1337;DHT22;662;48.814;9.318;2024-02-23T02:13:25;9.00;61.60
1337;DHT22;662;48.814;9.318;2024-02-23T02:15:53;9.00;61.60
1337;DHT22;662;48.814;9.318;2024-02-23T02:18:18;9.00;61.70
1337;DHT22;662;48.814;9.318;2024-02-23T02:20:52;9.00;62.00
1337;DHT22;662;48.814;9.318;2024-02-23T02:23:19;9.10;62.30
1337;DHT22;662;48.814;9.318;2024-02-23T02:25:44;9.10;62.00
1337;DHT22;662;48.814;9.318;2024-02-23T02:28:11;9.10;62.10
1337;DHT22;662;48.814;9.318;2024-02-23T02:30:37;9.10;62.00
1337;DHT22;662;48.814;9.318;2024-02-23T02:33:03;9.10;61.90
1337;DHT22;662;48.814;9.318;2024-02-23T02:35:29;9.10;62.10
1337;DHT22;662;48.814;9.318;2024-02-23T02:37:54;9.10;62.40
1337;DHT22;662;48.814;9.318;2024-02-23T02:40:20;9.00;62.90
1337;DHT22;662;48.814;9.318;2024-02-23T02:42:46;9.00;63.60
1337;DHT22;662;48.814;9.318;2024-02-23T02:45:12;8.90;64.00
1337;DHT22;662;48.814;9.318;2024-02-23T02:47:37;8.90;64.30
1337;DHT22;662;48.814;9.318;2024-02-23T02:50:03;8.80;64.40
1337;DHT22;662;48.814;9.318;2024-02-23T02:52:31;8.70;64.60
1337;DHT22;662;48.814;9.318;2024-02-23T02:54:57;8.70;64.80
1337;DHT22;662;48.814;9.318;2024-02-23T02:57:23;8.70;64.90
1337;DHT22;662;48.814;9.318;2024-02-23T02:59:49;8.70;64.60
1337;DHT22;662;48.814;9.318;2024-02-23T03:02:15;8.70;64.40
1337;DHT22;662;48.814;9.318;2024-02-23T03:04:50;8.60;64.30
1337;DHT22;662;48.814;9.318;2024-02-23T03:07:16;8.60;64.50
1337;DHT22;662;48.814;9.318;2024-02-23T03:09:42;8.50;64.60
1337;DHT22;662;48.814;9.318;2024-02-23T03:12:09;8.50;65.10
1337;DHT22;662;48.814;9.318;2024-02-23T03:14:35;8.40;65.70
1337;DHT22;662;48.814;9.318;2024-02-23T03:17:02;8.40;66.00
1337;DHT22;662;48.814;9.318;2024-02-23T03:19:29;8.40;66.20
1337;DHT22;662;48.814;9.318;2024-02-23T03:21:54;8.30;66.30
1337;DHT22;662;48.814;9.318;2024-02-23T03:24:20;8.30;66.60
1337;DHT22;662;48.814;9.318;2024-02-23T03:26:45;8.20;66.50
1337;DHT22;662;48.814;9.318;2024-02-23T03:29:11;8.20;66.40
1337;DHT22;662;48.814;9.318;2024-02-23T03:31:37;8.20;66.50
1337;DHT22;662;48.814;9.318;2024-02-23T03:34:03;8.20;65.00
1337;DHT22;662;48.814;9.318;2024-02-23T03:36:28;8.30;64.50
1337;DHT22;662;48.814;9.318;2024-02-23T03:38:54;8.30;62.80
1337;DHT22;662;48.814;9.318;2024-02-23T03:41:20;8.30;61.70
1337;DHT22;662;48.814;9.318;2024-02-23T03:43:45;8.30;60.60
1337;DHT22;662;48.814;9.318;2024-02-23T03:46:11;8.40;60.50
1337;DHT22;662;48.814;9.318;2024-02-23T03:48:37;8.40;60.40
1337;DHT22;662;48.814;9.318;2024-02-23T03:51:04;8.40;60.10
1337;DHT22;662;48.814;9.318;2024-02-23T03:53:30;8.40;59.30
1337;DHT22;662;48.814;9.318;2024-02-23T03:55:57;8.40;59.10
1337;DHT22;662;48.814;9.318;2024-02-23T03:58:22;8.40;58.90
1337;DHT22;662;48.814;9.318;2024-02-23T04:00:48;8.40;58.60
1337;DHT22;662;48.814;9.318;2024-02-23T04:03:14;8.40;58.80
1337;DHT22;662;48.814;9.318;2024-02-23T04:05:39;8.40;58.60
1337;DHT22;662;48.814;9.318;2024-02-23T04:08:05;8.50;58.70
1337;DHT22;662;48.814;9.318;2024-02-23T04:10:31;8.50;58.70
1337;DHT22;662;48.814;9.318;2024-02-23T04:12:58;8.50;58.70
1337;DHT22;662;48.814;9.318;2024-02-23T04:15:23;8.50;58.00
1337;DHT22;662;48.814;9.318;2024-02-23T04:17:49;8.50;57.80
1337;DHT22;662;48.814;9.318;2024-02-23T04:20:15;8.50;57.60
1337;DHT22;662;48.814;9.318;2024-02-23T04:22:40;8.50;57.70
1337;DHT22;662;48.814;9.318;2024-02-23T04:25:06;8.50;57.90
1337;DHT22;662;48.814;9.318;2024-02-23T04:27:32;8.50;57.50
1337;DHT22;662;48.814;9.318;2024-02-23T04:29:58;8.50;57.50
1337;DHT22;662;48.814;9.318;2024-02-23T04:32:23;8.40;57.60
1337;DHT22;662;48.814;9.318;2024-02-23T04:34:49;8.50;57.70
1337;DHT22;662;48.814;9.318;2024-02-23T04:37:14;8.40;57.30
1337;DHT22;662;48.814;9.318;2024-02-23T04:39:40;8.50;57.40
1337;DHT22;662;48.814;9.318;2024-02-23T04:42:07;8.40;57.30
1337;DHT22;662;48.814;9.318;2024-02-23T04:44:34;8.50;57.30
1337;DHT22;662;48.814;9.318;2024-02-23T04:47:00;8.50;57.30
1337;DHT22;662;48.814;9.318;2024-02-23T04:49:28;8.50;57.30
1337;DHT22;662;48.814;9.318;2024-02-23T04:51:54;8.50;57.20
1337;DHT22;662;48.814;9.318;2024-02-23T04:54:20;8.50;57.00
1337;DHT22;662;48.814;9.318;2024-02-23T04:56:47;8.50;57.00
1337;DHT22;662;48.814;9.318;2024-02-23T04:59:13;8.50;57.10
1337;DHT22;662;48.814;9.318;2024-02-23T05:01:39;8.50;57.30
1337;DHT22;662;48.814;9.318;2024-02-23T05:04:05;8.50;57.20
1337;DHT22;662;48.814;9.318;2024-02-23T05:06:30;8.50;57.30
1337;DHT22;662;48.814;9.318;2024-02-23T05:08:56;8.50;57.20
1337;DHT22;662;48.814;9.318;2024-02-23T05:11:22;8.50;57.20
1337;DHT22;662;48.814;9.318;2024-02-23T05:13:47;8.50;57.20
1337;DHT22;662;48.814;9.318;2024-02-23T05:16:16;8.50;57.10
1337;DHT22;662;48.814;9.318;2024-02-23T05:18:42;8.60;57.10
1337;DHT22;662;48.814;9.318;2024-02-23T05:21:09;8.50;57.00
1337;DHT22;662;48.814;9.318;2024-02-23T05:23:35;8.50;57.00
1337;DHT22;662;48.814;9.318;2024-02-23T05:26:01;8.50;56.90
1337;DHT22;662;48.814;9.318;2024-02-23T05:28:27;8.50;56.30
1337;DHT22;662;48.814;9.318;2024-02-23T05:30:54;8.50;56.30
1337;DHT22;662;48.814;9.318;2024-02-23T05:33:19;8.40;56.30
1337;DHT22;662;48.814;9.318;2024-02-23T05:35:48;8.40;56.30
1337;DHT22;662;48.814;9.318;2024-02-23T05:38:17;8.40;55.70
1337;DHT22;662;48.814;9.318;2024-02-23T05:40:43;8.40;55.70
1337;DHT22;662;48.814;9.318;2024-02-23T05:43:09;8.40;55.80
1337;DHT22;662;48.814;9.318;2024-02-23T05:45:35;8.40;55.90
1337;DHT22;662;48.814;9.318;2024-02-23T05:48:00;8.30;56.10
1337;DHT22;662;48.814;9.318;2024-02-23T05:50:29;8.30;56.20
1337;DHT22;662;48.814;9.318;2024-02-23T05:52:55;8.30;56.30
1337;DHT22;662;48.814;9.318;2024-02-23T05:55:20;8.30;56.30
1337;DHT22;662;48.814;9.318;2024-02-23T05:57:46;8.30;56.90
1337;DHT22;662;48.814;9.318;2024-02-23T06:00:13;8.30;56.80
1337;DHT22;662;48.814;9.318;2024-02-23T06:02:40;8.30;56.30
1337;DHT22;662;48.814;9.318;2024-02-23T06:05:06;8.20;56.30
1337;DHT22;662;48.814;9.318;2024-02-23T06:07:33;8.10;56.40
1337;DHT22;662;48.814;9.318;2024-02-23T06:10:00;8.10;56.60
1337;DHT22;662;48.814;9.318;2024-02-23T06:12:26;8.10;56.80
1337;DHT22;662;48.814;9.318;2024-02-23T06:14:52;8.10;57.00
1337;DHT22;662;48.814;9.318;2024-02-23T06:17:18;8.00;56.90
1337;DHT22;662;48.814;9.318;2024-02-23T06:19:44;8.00;57.10
1337;DHT22;662;48.814;9.318;2024-02-23T06:22:09;8.00;57.70
1337;DHT22;662;48.814;9.318;2024-02-23T06:24:39;7.90;57.30
1337;DHT22;662;48.814;9.318;2024-02-23T06:27:04;7.90;57.50
1337;DHT22;662;48.814;9.318;2024-02-23T06:29:30;7.90;57.60
1337;DHT22;662;48.814;9.318;2024-02-23T06:31:56;7.90;57.80
1337;DHT22;662;48.814;9.318;2024-02-23T06:34:21;7.90;57.90
1337;DHT22;662;48.814;9.318;2024-02-23T06:36:47;7.90;58.00
1337;DHT22;662;48.814;9.318;2024-02-23T06:39:13;7.90;58.20
1337;DHT22;662;48.814;9.318;2024-02-23T06:41:39;7.80;58.60
1337;DHT22;662;48.814;9.318;2024-02-23T06:44:05;7.80;59.00
1337;DHT22;662;48.814;9.318;2024-02-23T06:46:30;7.70;59.20
1337;DHT22;662;48.814;9.318;2024-02-23T06:48:56;7.80;59.40
1337;DHT22;662;48.814;9.318;2024-02-23T06:51:22;7.80;59.50
1337;DHT22;662;48.814;9.318;2024-02-23T06:53:47;7.80;59.50
1337;DHT22;662;48.814;9.318;2024-02-23T06:56:13;7.90;59.70
1337;DHT22;662;48.814;9.318;2024-02-23T06:58:40;7.90;59.70
1337;DHT22;662;48.814;9.318;2024-02-23T07:01:06;7.90;59.70
1337;DHT22;662;48.814;9.318;2024-02-23T07:03:32;8.00;59.90
1337;DHT22;662;48.814;9.318;2024-02-23T07:05:58;8.00;60.20
1337;DHT22;662;48.814;9.318;2024-02-23T07:08:24;8.00;60.50
1337;DHT22;662;48.814;9.318;2024-02-23T07:10:50;8.00;61.00
1337;DHT22;662;48.814;9.318;2024-02-23T07:13:16;8.00;61.40
1337;DHT22;662;48.814;9.318;2024-02-23T07:15:43;8.10;61.80
1337;DHT22;662;48.814;9.318;2024-02-23T07:18:08;8.10;62.00
1337;DHT22;662;48.814;9.318;2024-02-23T07:20:36;8.10;62.00
1337;DHT22;662;48.814;9.318;2024-02-23T07:23:01;8.10;61.90
1337;DHT22;662;48.814;9.318;2024-02-23T07:25:27;8.10;61.10
1337;DHT22;662;48.814;9.318;2024-02-23T07:27:53;8.10;60.50
1337;DHT22;662;48.814;9.318;2024-02-23T07:30:18;8.00;60.40
1337;DHT22;662;48.814;9.318;2024-02-23T07:32:45;8.10;59.90
1337;DHT22;662;48.814;9.318;2024-02-23T07:35:12;8.10;59.30
1337;DHT22;662;48.814;9.318;2024-02-23T07:37:37;8.10;58.90
1337;DHT22;662;48.814;9.318;2024-02-23T07:40:04;8.20;58.20
1337;DHT22;662;48.814;9.318;2024-02-23T07:42:33;8.20;58.30
1337;DHT22;662;48.814;9.318;2024-02-23T07:45:04;8.20;58.30
1337;DHT22;662;48.814;9.318;2024-02-23T07:47:33;8.30;58.10
1337;DHT22;662;48.814;9.318;2024-02-23T07:49:59;8.30;58.00
1337;DHT22;662;48.814;9.318;2024-02-23T07:52:25;8.40;58.00
1337;DHT22;662;48.814;9.318;2024-02-23T07:54:52;8.50;58.00
1337;DHT22;662;48.814;9.318;2024-02-23T07:57:21;8.50;58.30
1337;DHT22;662;48.814;9.318;2024-02-23T07:59:47;8.50;58.40
1337;DHT22;662;48.814;9.318;2024-02-23T08:02:14;8.50;58.70
1337;DHT22;662;48.814;9.318;2024-02-23T08:04:45;8.50;58.70
1337;DHT22;662;48.814;9.318;2024-02-23T08:07:18;8.50;58.80
1337;DHT22;662;48.814;9.318;2024-02-23T08:09:48;8.60;58.80
1337;DHT22;662;48.814;9.318;2024-02-23T08:12:13;8.50;58.90
1337;DHT22;662;48.814;9.318;2024-02-23T08:14:39;8.50;58.80
1337;DHT22;662;48.814;9.318;2024-02-23T08:17:05;8.50;58.80
1337;DHT22;662;48.814;9.318;2024-02-23T08:19:30;8.40;58.70
1337;DHT22;662;48.814;9.318;2024-02-23T08:21:56;8.50;58.80
1337;DHT22;662;48.814;9.318;2024-02-23T08:24:22;8.40;58.70
1337;DHT22;662;48.814;9.318;2024-02-23T08:26:48;8.40;58.70
1337;DHT22;662;48.814;9.318;2024-02-23T08:29:13;8.50;58.80
1337;DHT22;662;48.814;9.318;2024-02-23T08:31:39;8.60;58.90
1337;DHT22;662;48.814;9.318;2024-02-23T08:34:04;8.60;58.90
1337;DHT22;662;48.814;9.318;2024-02-23T08:36:36;8.70;58.70
1337;DHT22;662;48.814;9.318;2024-02-23T08:39:02;8.70;58.40
1337;DHT22;662;48.814;9.318;2024-02-23T08:41:28;8.80;58.70
1337;DHT22;662;48.814;9.318;2024-02-23T08:43:54;8.80;58.00
1337;DHT22;662;48.814;9.318;2024-02-23T08:46:21;8.80;57.50
1337;DHT22;662;48.814;9.318;2024-02-23T08:48:47;8.90;57.70
1337;DHT22;662;48.814;9.318;2024-02-23T08:51:13;8.90;57.60
1337;DHT22;662;48.814;9.318;2024-02-23T08:53:38;8.90;57.60
1337;DHT22;662;48.814;9.318;2024-02-23T08:56:06;9.00;57.60
1337;DHT22;662;48.814;9.318;2024-02-23T08:58:33;9.00;57.30
1337;DHT22;662;48.814;9.318;2024-02-23T09:00:58;9.00;56.80
1337;DHT22;662;48.814;9.318;2024-02-23T09:03:24;9.00;56.70
1337;DHT22;662;48.814;9.318;2024-02-23T09:05:49;9.00;56.90
1337;DHT22;662;48.814;9.318;2024-02-23T09:08:15;9.00;56.60
1337;DHT22;662;48.814;9.318;2024-02-23T09:10:41;9.00;56.60
1337;DHT22;662;48.814;9.318;2024-02-23T09:13:06;9.00;56.70
1337;DHT22;662;48.814;9.318;2024-02-23T09:15:32;9.00;55.60
1337;DHT22;662;48.814;9.318;2024-02-23T09:17:58;9.00;55.70
1337;DHT22;662;48.814;9.318;2024-02-23T09:20:23;8.90;55.70
1337;DHT22;662;48.814;9.318;2024-02-23T09:22:49;8.90;55.90
1337;DHT22;662;48.814;9.318;2024-02-23T09:25:14;9.00;55.80
1337;DHT22;662;48.814;9.318;2024-02-23T09:27:40;9.00;55.40
1337;DHT22;662;48.814;9.318;2024-02-23T09:30:12;9.00;55.20
1337;DHT22;662;48.814;9.318;2024-02-23T09:32:38;9.00;55.30
1337;DHT22;662;48.814;9.318;2024-02-23T09:35:04;9.00;55.20
1337;DHT22;662;48.814;9.318;2024-02-23T09:37:30;9.00;54.70
1337;DHT22;662;48.814;9.318;2024-02-23T09:39:56;9.00;54.60
1337;DHT22;662;48.814;9.318;2024-02-23T09:42:23;9.10;54.50
1337;DHT22;662;48.814;9.318;2024-02-23T09:45:00;9.10;54.10
1337;DHT22;662;48.814;9.318;2024-02-23T09:47:29;9.10;53.90
1337;DHT22;662;48.814;9.318;2024-02-23T09:49:56;9.20;54.10
1337;DHT22;662;48.814;9.318;2024-02-23T09:52:22;9.20;54.10
1337;DHT22;662;48.814;9.318;2024-02-23T09:54:48;9.30;53.70
1337;DHT22;662;48.814;9.318;2024-02-23T09:57:16;9.40;53.30
1337;DHT22;662;48.814;9.318;2024-02-23T09:59:42;9.40;53.30
1337;DHT22;662;48.814;9.318;2024-02-23T10:02:09;9.60;53.60
1337;DHT22;662;48.814;9.318;2024-02-23T10:04:42;9.70;53.50
1337;DHT22;662;48.814;9.318;2024-02-23T10:07:09;9.80;52.80
1337;DHT22;662;48.814;9.318;2024-02-23T10:09:35;9.80;52.80
1337;DHT22;662;48.814;9.318;2024-02-23T10:12:02;9.80;52.50
1337;DHT22;662;48.814;9.318;2024-02-23T10:14:28;9.90;52.20
1337;DHT22;662;48.814;9.318;2024-02-23T10:16:54;9.90;52.00
1337;DHT22;662;48.814;9.318;2024-02-23T10:19:21;9.90;51.70
1337;DHT22;662;48.814;9.318;2024-02-23T10:21:47;9.90;51.70
1337;DHT22;662;48.814;9.318;2024-02-23T10:24:15;9.90;50.90
1337;DHT22;662;48.814;9.318;2024-02-23T10:26:44;9.80;51.30
1337;DHT22;662;48.814;9.318;2024-02-23T10:29:10;9.80;51.70
1337;DHT22;662;48.814;9.318;2024-02-23T10:31:36;9.80;51.00
1337;DHT22;662;48.814;9.318;2024-02-23T10:34:08;9.80;50.70
1337;DHT22;662;48.814;9.318;2024-02-23T10:36:41;9.70;50.90
1337;DHT22;662;48.814;9.318;2024-02-23T10:39:08;9.80;51.30
1337;DHT22;662;48.814;9.318;2024-02-23T10:41:39;9.80;51.10
1337;DHT22;662;48.814;9.318;2024-02-23T10:44:11;9.80;51.00
1337;DHT22;662;48.814;9.318;2024-02-23T10:46:37;9.80;50.60
1337;DHT22;662;48.814;9.318;2024-02-23T10:49:03;9.90;50.60
1337;DHT22;662;48.814;9.318;2024-02-23T10:51:30;9.90;50.70
1337;DHT22;662;48.814;9.318;2024-02-23T10:53:57;9.90;51.20
1337;DHT22;662;48.814;9.318;2024-02-23T10:56:22;9.90;50.70
1337;DHT22;662;48.814;9.318;2024-02-23T10:58:49;9.90;50.00
1337;DHT22;662;48.814;9.318;2024-02-23T11:01:16;10.00;49.50
1337;DHT22;662;48.814;9.318;2024-02-23T11:03:44;10.10;49.80
1337;DHT22;662;48.814;9.318;2024-02-23T11:06:15;10.20;50.50
1337;DHT22;662;48.814;9.318;2024-02-23T11:08:46;10.30;49.80
1337;DHT22;662;48.814;9.318;2024-02-23T11:11:15;10.40;49.10
1337;DHT22;662;48.814;9.318;2024-02-23T11:13:43;10.50;49.40
1337;DHT22;662;48.814;9.318;2024-02-23T11:16:09;10.50;49.00
1337;DHT22;662;48.814;9.318;2024-02-23T11:18:36;10.60;48.80
1337;DHT22;662;48.814;9.318;2024-02-23T11:21:04;10.60;48.30
1337;DHT22;662;48.814;9.318;2024-02-23T11:23:42;10.60;48.80
1337;DHT22;662;48.814;9.318;2024-02-23T11:26:11;10.60;48.60
1337;DHT22;662;48.814;9.318;2024-02-23T11:28:47;10.70;48.60
1337;DHT22;662;48.814;9.318;2024-02-23T11:31:20;10.70;48.60
1337;DHT22;662;48.814;9.318;2024-02-23T11:34:08;10.70;48.30
1337;DHT22;662;48.814;9.318;2024-02-23T11:36:35;10.70;48.30
1337;DHT22;662;48.814;9.318;2024-02-23T11:39:02;10.70;48.10
1337;DHT22;662;48.814;9.318;2024-02-23T11:41:29;10.70;48.20
1337;DHT22;662;48.814;9.318;2024-02-23T11:43:55;10.80;47.80
1337;DHT22;662;48.814;9.318;2024-02-23T11:46:22;10.80;47.60
1337;DHT22;662;48.814;9.318;2024-02-23T11:48:49;10.80;47.60
1337;DHT22;662;48.814;9.318;2024-02-23T11:51:25;10.80;47.80
1337;DHT22;662;48.814;9.318;2024-02-23T11:53:55;10.90;47.90
1337;DHT22;662;48.814;9.318;2024-02-23T11:56:23;11.00;48.10
1337;DHT22;662;48.814;9.318;2024-02-23T11:58:49;11.10;48.20
1337;DHT22;662;48.814;9.318;2024-02-23T12:01:15;11.10;47.40
1337;DHT22;662;48.814;9.318;2024-02-23T12:03:40;11.10;47.00
1337;DHT22;662;48.814;9.318;2024-02-23T12:06:07;11.10;46.90
1337;DHT22;662;48.814;9.318;2024-02-23T12:08:33;11.10;47.20
1337;DHT22;662;48.814;9.318;2024-02-23T12:11:07;11.00;47.50
1337;DHT22;662;48.814;9.318;2024-02-23T12:13:34;11.00;47.70
1337;DHT22;662;48.814;9.318;2024-02-23T12:16:01;11.00;47.90
1337;DHT22;662;48.814;9.318;2024-02-23T12:18:28;11.00;47.40
1337;DHT22;662;48.814;9.318;2024-02-23T12:21:05;11.00;47.20
1337;DHT22;662;48.814;9.318;2024-02-23T12:23:42;11.00;47.80
1337;DHT22;662;48.814;9.318;2024-02-23T12:26:08;11.00;47.90
1337;DHT22;662;48.814;9.318;2024-02-23T12:28:34;11.00;47.50
1337;DHT22;662;48.814;9.318;2024-02-23T12:31:01;11.00;48.20
1337;DHT22;662;48.814;9.318;2024-02-23T12:33:28;10.90;47.80
1337;DHT22;662;48.814;9.318;2024-02-23T12:35:55;11.00;47.40
1337;DHT22;662;48.814;9.318;2024-02-23T12:38:22;11.00;47.90
1337;DHT22;662;48.814;9.318;2024-02-23T12:40:47;11.10;47.70
1337;DHT22;662;48.814;9.318;2024-02-23T12:43:14;11.20;48.00
1337;DHT22;662;48.814;9.318;2024-02-23T12:45:39;11.30;48.00
1337;DHT22;662;48.814;9.318;2024-02-23T12:48:05;11.40;47.60
1337;DHT22;662;48.814;9.318;2024-02-23T12:50:31;11.40;47.70
1337;DHT22;662;48.814;9.318;2024-02-23T12:52:57;11.40;47.40
1337;DHT22;662;48.814;9.318;2024-02-23T12:55:23;11.40;47.40
1337;DHT22;662;48.814;9.318;2024-02-23T12:57:49;11.40;46.60
1337;DHT22;662;48.814;9.318;2024-02-23T13:00:15;11.40;47.20
1337;DHT22;662;48.814;9.318;2024-02-23T13:02:41;11.30;47.00
1337;DHT22;662;48.814;9.318;2024-02-23T13:05:07;11.40;47.10
1337;DHT22;662;48.814;9.318;2024-02-23T13:07:32;11.40;47.60
1337;DHT22;662;48.814;9.318;2024-02-23T13:09:58;11.50;47.40
1337;DHT22;662;48.814;9.318;2024-02-23T13:12:24;11.40;47.40
1337;DHT22;662;48.814;9.318;2024-02-23T13:14:51;11.40;47.50
1337;DHT22;662;48.814;9.318;2024-02-23T13:17:16;11.40;47.70
1337;DHT22;662;48.814;9.318;2024-02-23T13:19:43;11.40;47.50
1337;DHT22;662;48.814;9.318;2024-02-23T13:22:09;11.40;47.60
1337;DHT22;662;48.814;9.318;2024-02-23T13:24:34;11.50;47.80
1337;DHT22;662;48.814;9.318;2024-02-23T13:27:00;11.50;47.70
1337;DHT22;662;48.814;9.318;2024-02-23T13:29:26;11.50;47.60
1337;DHT22;662;48.814;9.318;2024-02-23T13:31:52;11.50;47.60
1337;DHT22;662;48.814;9.318;2024-02-23T13:34:19;11.60;47.80
1337;DHT22;662;48.814;9.318;2024-02-23T13:36:44;11.50;47.50
1337;DHT22;662;48.814;9.318;2024-02-23T13:39:10;11.50;47.90
1337;DHT22;662;48.814;9.318;2024-02-23T13:41:36;11.50;47.80
1337;DHT22;662;48.814;9.318;2024-02-23T13:44:01;11.40;47.50
1337;DHT22;662;48.814;9.318;2024-02-23T13:46:27;11.40;47.60
1337;DHT22;662;48.814;9.318;2024-02-23T13:49:03;11.50;47.80
1337;DHT22;662;48.814;9.318;2024-02-23T13:51:31;11.60;47.60
1337;DHT22;662;48.814;9.318;2024-02-23T13:53:56;11.60;47.40
1337;DHT22;662;48.814;9.318;2024-02-23T13:56:22;11.50;46.90
1337;DHT22;662;48.814;9.318;2024-02-23T13:58:48;11.40;47.20
1337;DHT22;662;48.814;9.318;2024-02-23T14:01:15;11.40;47.20
1337;DHT22;662;48.814;9.318;2024-02-23T14:03:40;11.40;47.10
1337;DHT22;662;48.814;9.318;2024-02-23T14:06:06;11.50;47.50
1337;DHT22;662;48.814;9.318;2024-02-23T14:08:32;11.50;47.50
1337;DHT22;662;48.814;9.318;2024-02-23T14:11:00;11.50;47.80
1337;DHT22;662;48.814;9.318;2024-02-23T14:13:26;11.60;48.00
1337;DHT22;662;48.814;9.318;2024-02-23T14:15:52;11.60;47.50
1337;DHT22;662;48.814;9.318;2024-02-23T14:18:17;11.60;47.90
1337;DHT22;662;48.814;9.318;2024-02-23T14:20:43;11.60;47.90
1337;DHT22;662;48.814;9.318;2024-02-23T14:23:09;11.60;47.90
1337;DHT22;662;48.814;9.318;2024-02-23T14:25:34;11.70;47.90
1337;DHT22;662;48.814;9.318;2024-02-23T14:28:00;11.70;47.70
1337;DHT22;662;48.814;9.318;2024-02-23T14:30:26;11.70;47.40
1337;DHT22;662;48.814;9.318;2024-02-23T14:32:52;11.70;47.80
1337;DHT22;662;48.814;9.318;2024-02-23T14:35:17;11.70;47.80
1337;DHT22;662;48.814;9.318;2024-02-23T14:37:43;11.80;47.80
1337;DHT22;662;48.814;9.318;2024-02-23T14:40:09;11.70;47.80
1337;DHT22;662;48.814;9.318;2024-02-23T14:42:35;11.70;48.00
1337;DHT22;662;48.814;9.318;2024-02-23T14:45:01;11.70;48.30
1337;DHT22;662;48.814;9.318;2024-02-23T14:47:27;11.70;48.40
1337;DHT22;662;48.814;9.318;2024-02-23T14:49:53;11.70;48.30
1337;DHT22;662;48.814;9.318;2024-02-23T14:52:18;11.70;48.20
1337;DHT22;662;48.814;9.318;2024-02-23T14:54:45;11.70;48.20
1337;DHT22;662;48.814;9.318;2024-02-23T14:57:10;11.70;48.20
1337;DHT22;662;48.814;9.318;2024-02-23T14:59:36;11.90;48.50
1337;DHT22;662;48.814;9.318;2024-02-23T15:02:05;12.20;47.90
1337;DHT22;662;48.814;9.318;2024-02-23T15:04:31;12.40;47.30
1337;DHT22;662;48.814;9.318;2024-02-23T15:06:58;12.40;47.10
1337;DHT22;662;48.814;9.318;2024-02-23T15:09:24;12.30;46.80
1337;DHT22;662;48.814;9.318;2024-02-23T15:11:49;12.30;47.00
1337;DHT22;662;48.814;9.318;2024-02-23T15:14:15;12.20;47.00
1337;DHT22;662;48.814;9.318;2024-02-23T15:16:40;12.10;47.50
1337;DHT22;662;48.814;9.318;2024-02-23T15:19:06;12.00;47.00
1337;DHT22;662;48.814;9.318;2024-02-23T15:21:32;11.90;47.20
1337;DHT22;662;48.814;9.318;2024-02-23T15:23:58;11.80;46.70
1337;DHT22;662;48.814;9.318;2024-02-23T15:26:24;11.70;46.90
1337;DHT22;662;48.814;9.318;2024-02-23T15:28:49;11.60;47.50
1337;DHT22;662;48.814;9.318;2024-02-23T15:31:15;11.50;47.40
1337;DHT22;662;48.814;9.318;2024-02-23T15:33:41;11.40;47.80
1337;DHT22;662;48.814;9.318;2024-02-23T15:36:07;11.40;48.00
1337;DHT22;662;48.814;9.318;2024-02-23T15:38:35;11.30;48.00
1337;DHT22;662;48.814;9.318;2024-02-23T15:41:01;11.30;48.30
1337;DHT22;662;48.814;9.318;2024-02-23T15:43:27;11.30;48.60
1337;DHT22;662;48.814;9.318;2024-02-23T15:45:54;11.20;48.60
1337;DHT22;662;48.814;9.318;2024-02-23T15:48:20;11.20;48.80
1337;DHT22;662;48.814;9.318;2024-02-23T15:50:45;11.20;48.90
1337;DHT22;662;48.814;9.318;2024-02-23T15:53:11;11.20;48.90
1337;DHT22;662;48.814;9.318;2024-02-23T15:55:37;11.20;49.00
1337;DHT22;662;48.814;9.318;2024-02-23T15:58:03;11.20;49.00
1337;DHT22;662;48.814;9.318;2024-02-23T16:00:29;11.10;49.10
1337;DHT22;662;48.814;9.318;2024-02-23T16:02:55;11.10;49.20
1337;DHT22;662;48.814;9.318;2024-02-23T16:05:20;11.00;49.20
1337;DHT22;662;48.814;9.318;2024-02-23T16:07:46;11.00;49.40
1337;DHT22;662;48.814;9.318;2024-02-23T16:10:15;11.00;49.40
1337;DHT22;662;48.814;9.318;2024-02-23T16:12:41;11.00;49.50
1337;DHT22;662;48.814;9.318;2024-02-23T16:15:07;11.00;49.50
1337;DHT22;662;48.814;9.318;2024-02-23T16:17:34;10.90;49.50
1337;DHT22;662;48.814;9.318;2024-02-23T16:20:01;10.90;50.40
1337;DHT22;662;48.814;9.318;2024-02-23T16:22:30;10.90;50.00
1337;DHT22;662;48.814;9.318;2024-02-23T16:24:57;11.00;50.00